Loisir ou Compétition : Rejoignez un Club de la Fédération

Résultats

BAG Biathlon Automne GUC resultats finales

GRENOBLE

MASS Hommes

Jury de Compétition

Délégué Technique :
SOULIE FRANCOIS ()
D.T. Adjoint :
 
Dir. Epreuve :
 
Chef Pas de Tir :
 

Caractéristiques de la Piste

Piste :
Site de Replis
Distance :
1750 km
Point Haut :
223 m
Point Bas :
230 m
Montée Tot. :
 
Montée Max. :
 
Homologation :
 

Pénalité Appliquée :
 
Coefficient :
 

Catégorie :
U11
Style :
L
Type de Tir :
c-c- - - -
Clt Dos Clt/Cat Code An Nom Prénom Com Club Temps Pena Tps Tot Ecart Points
Classés
1 392 1/U11 FFS2686839 2009 SCHOTT CLEMENT DA CS VILLARD 07:25.3 0-1-0-0 07:25.3 00:00.0
2 391 2/U11 FFS2695852 2009 MALIQUEO REPOUX MAEL DA CS VILLARD 07:25.4 0-0-0-0 07:25.4 00:00.1
3 413 3/U11 FFS2697248 2009 MINAZZI MARTIN DA CS VILLARD 07:42.2 1-1-0-0 07:42.2 00:16.9
4 426 4/U11 FFS2702218 2009 FINE ALEXIS AP SERRE CHEVAL 07:42.7 0-1-0-0 07:42.7 00:17.4
5 402 5/U11 FFS2697253 2009 VILLANI ENGUERAND DA CS VILLARD 07:43.3 0-1-0-0 07:43.3 00:18.0
6 423 6/U11 FFS2691494 2009 DAUVE THEOPHILE DA SN CHARTROUS 07:49.2 0-0-0-0 07:49.2 00:23.9
7 398 7/U11 FFS2696325 2009 LAROCHE AYMERIC DA GUC GRENOBLE 07:52.8 0-0-0-0 07:52.8 00:27.5
8 395 8/U11 FFS2690144 2009 DUMONT ZANELLA KENZO DA CS LA PLAGNE 07:56.0 1-0-0-0 07:56.0 00:30.7
9 393 9/U11 FFS2691418 2010 SEGON ANTONIN DA SNB CHAMROUS 07:56.1 2-2-0-0 07:56.1 00:30.8
10 439 10/U11 FFS2692562 2010 ROBERT ILAN DA ADDSN ARDECH 08:01.0 0-0-0-0 08:01.0 00:35.7
11 431 11/U11 FFS2701989 2010 LAGOUTTE MARTENON LENNY DA SN CHARTROUS 08:02.3 0-0-0-0 08:02.3 00:37.0
12 401 12/U11 FFS2696493 2009 BERNAJUSANG CHRISTAEL DA SNO 08:21.3 0-0-0-0 08:21.3 00:56.0
13 396 13/U11 FFS2693623 2009 TAUNIER OSCAR DA CS VILLARD 08:22.6 1-1-0-0 08:22.6 00:57.3
14 434 14/U11 FFS2702556 2010 ORCEL TIMOTE DA SN CHARTROUS 08:24.2 0-0-0-0 08:24.2 00:58.9
15 397 15/U11 FFS2701757 2010 GUERIN LIAM DA SA MEAUDRAIS 08:25.8 0-1-0-0 08:25.8 01:00.5
16 427 16/U11 FFS2702559 2009 GERBER TITOUAN DA SN CHARTROUS 08:46.1 0-2-0-0 08:46.1 01:20.8
17 405 17/U11 FFS2694079 2010 CHARRIER ARTHUR DA US AUTRANNAI 08:51.9 0-0-0-0 08:51.9 01:26.6
18 394 18/U11 FFS2692416 2009 GUILLET EMILIAN DA VERCORS SKF 08:57.7 2-0-0-0 08:57.7 01:32.4
19 408 19/U11 FFS2696494 2009 FAVIER JEAN DA SNO 09:00.0 0-1-0-0 09:00.0 01:34.7
20 407 20/U11 FFS2692611 2009 DEPRE WILLIAM DA GUC GRENOBLE 09:01.8 2-1-0-0 09:01.8 01:36.5
21 440 21/U11 FFS2702654 2009 VERNET THEO DA ADDSN ARDECH 09:04.1 1-1-0-0 09:04.1 01:38.8
22 412 22/U11 FFS2696844 2009 BOUFFAUD JOACHIM DA SN CHARTROUS 09:06.2 2-0-0-0 09:06.2 01:40.9
23 406 23/U11 FFS2701524 2010 LAMOUR IAN DA CS VILLARD 09:11.8 1-1-0-0 09:11.8 01:46.5
24 421 24/U11 FFS2696347 2010 BRON BENOIT DA SN CHARTROUS 09:19.4 1-0-0-0 09:19.4 01:54.1
25 411 25/U11 FFS2691487 2009 BERCHE THOMAS DA SN CHARTROUS 09:25.7 2-1-0-0 09:25.7 02:00.4
26 400 26/U11 FFS2691585 2009 MOSNIER FELIX DA GUC GRENOBLE 09:30.0 4-0-0-0 09:30.0 02:04.7
27 404 27/U11 FFS2701785 2010 AMAND THEO DA VERCORS SKF 09:30.1 1-1-0-0 09:30.1 02:04.8
28 409 28/U11 FFS2697436 2009 FRUOCO VALENTIN DA GUC GRENOBLE 09:50.9 1-3-0-0 09:50.9 02:25.6
29 435 29/U11 FFS2702400 2010 PALOMO TRISTAN DA VERCORS SKF 09:54.8 0-3-0-0 09:54.8 02:29.5
30 403 30/U11 FFS2691435 2009 BRUNEL KELIAN DA SNO 09:57.1 2-0-0-0 09:57.1 02:31.8
31 429 31/U11 FFS2701372 2010 GUYOT TOM DA GUC GRENOBLE 09:58.2 1-2-0-0 09:58.2 02:32.9
31 433 31/U11 FFS2701381 2010 ODILLE SIMON DA GUC GRENOBLE 09:58.2 2-1-0-0 09:58.2 02:32.9
33 399 33/U11 FFS2686364 2009 PASQUALON LUBIN DA SA MEAUDRAIS 10:16.3 0-3-0-0 10:16.3 02:51.0
34 410 34/U11 FFS2691358 2009 MUREAU JANY DA SA MEAUDRAIS 10:32.1 1-3-0-0 10:32.1 03:06.8
35 428 35/U11 FFS2702648 2009 GINEYS MATHIAS DA ADDSN ARDECH 10:54.0 1-0-0-0 10:54.0 03:28.7
36 437 36/U11 FFS2702217 2009 REYNAUD GABIN AP SERRE CHEVAL 10:54.1 1-0-0-0 10:54.1 03:28.8
37 432 37/U11 FFS2701526 2010 NOE LOIS DA SN CHARTROUS 11:00.0 3-3-0-0 11:00.0 03:34.7
38 425 38/U11 FFS2692399 2010 FAURE PACOME DA GUC GRENOBLE 11:17.3 2-2-0-0 11:17.3 03:52.0
39 438 39/U11 FFS2701378 2009 RIVOLTA GABRIEL DA GUC GRENOBLE 11:20.2 3-1-0-0 11:20.2 03:54.9
40 430 40/U11 FFS2701522 2010 JOCTEUR DAMIEN DA SN CHARTROUS 11:24.6 2-3-0-0 11:24.6 03:59.3
41 441 41/U11 FFS2696675 2010 VIENNE JOSSUA DA GUC GRENOBLE 11:59.8 5-1-0-0 11:59.8 04:34.5
42 436 42/U11 FFS2702216 2009 REYNAUD CESAR AP SERRE CHEVAL 12:51.2 2-5-0-0 12:51.2 05:25.9
43 422 43/U11 FFS2701387 2009 DARME MYLO DA GUC GRENOBLE 13:05.1 4-3-0-0 13:05.1 05:39.8
Non partants
424 FFS2686731 2010 DEWEER STANISLAS DA GUC GRENOBLE